Terminal Aerodrome Forecast
Issued by NWS Cleveland, OH

Home | Current Version | Previous Version | Text Only | Print | Product List | Glossary Off
Versions: 1 2 3 4 5 6 7 8 9 10 11 12 13 14 15 16

000
FTUS41 KCLE 110500
TAFMFD
TAF
KMFD 110530Z 1106/1206 VRB03KT P6SM SKC
      TEMPO 1109/1112 5SM BR
     FM111500 06005KT P6SM SCT040=

USA.gov is the U.S. government's official web portal to all federal, state and local government web resources and services.